Western, Illinois
Current Conditions -  °F | °C
As of 9:52 AM on Thursday 29 Jan 2015 (Local Time) from KMLI Reporting Station
Overcast Overcast  
Wind Chill: 26°   Ceiling: 1900
Heat Index: 35°   Visibility: 7mi
Dew Point: 29°   Wind: 15mph
Humidity: 78%   Direction: 310°NW
Pressure: 30.03"   Gusts: NA
Location:  41.3669°N, 90.3966°W
Report Text: KMLI 291552Z 31013KT 7SM OVC019 02/M02 A3003 RMK AO2 SLP175 T00171017
Loading
Personal Weather Stations






























Interactive Weather Map New forecast layout! Learn more

10-Day Weather Forecast

Advertisements
Track Severe Weather on mobile